createdAt,value
2022-12-27T00:00:10.631Z,13.47
2022-12-27T00:03:01.671Z,15.36
2022-12-27T00:05:30.228Z,16.26
2022-12-27T00:07:58.385Z,15.01
2022-12-27T00:10:26.682Z,13.63
2022-12-27T00:12:54.962Z,13.28
2022-12-27T00:15:22.947Z,15.19
2022-12-27T00:17:51.092Z,16.16
2022-12-27T00:20:19.119Z,14.93
2022-12-27T00:22:47.499Z,13.64
2022-12-27T00:25:15.569Z,12.77
2022-12-27T00:27:43.613Z,13.98
2022-12-27T00:30:12.625Z,15.95
2022-12-27T00:32:40.672Z,15.99
2022-12-27T00:35:09.135Z,14.63
2022-12-27T00:37:37.166Z,13.48
2022-12-27T00:40:05.568Z,12.67
2022-12-27T00:42:33.580Z,13.25
2022-12-27T00:45:01.700Z,15.45
2022-12-27T00:47:29.703Z,16.34
2022-12-27T00:49:57.676Z,15.19
2022-12-27T00:52:25.696Z,13.91
2022-12-27T00:54:53.781Z,12.97
2022-12-27T00:57:21.798Z,12.85
2022-12-27T00:59:49.813Z,14.93
2022-12-27T01:02:17.848Z,16.24
2022-12-27T01:04:45.909Z,15.22
2022-12-27T01:07:13.970Z,13.90
2022-12-27T01:09:41.970Z,12.95
2022-12-27T01:12:09.968Z,12.82
2022-12-27T01:14:38.034Z,14.86
2022-12-27T01:17:06.120Z,16.20
2022-12-27T01:19:38.297Z,15.22
2022-12-27T01:22:07.207Z,13.91
2022-12-27T01:24:35.322Z,12.97
2022-12-27T01:27:03.437Z,12.82
2022-12-27T01:29:31.526Z,14.84
2022-12-27T01:31:59.588Z,16.16
2022-12-27T01:34:27.713Z,15.09
2022-12-27T01:36:55.729Z,13.72
2022-12-27T01:39:23.774Z,12.78
2022-12-27T01:42:10.553Z,13.03
2022-12-27T01:44:49.571Z,15.77
2022-12-27T01:47:36.064Z,16.23
2022-12-27T01:50:09.749Z,14.71
2022-12-27T01:52:44.841Z,13.58
2022-12-27T01:55:28.344Z,12.81
2022-12-27T01:58:19.550Z,13.55
2022-12-27T02:00:49.275Z,16.13
2022-12-27T02:03:27.208Z,16.00
2022-12-27T02:05:56.800Z,14.66
2022-12-27T02:08:32.656Z,13.66
2022-12-27T02:11:01.104Z,12.94
2022-12-27T02:13:32.435Z,13.19
2022-12-27T02:16:00.846Z,15.53
2022-12-27T02:18:28.979Z,16.44
2022-12-27T02:21:23.430Z,15.26
2022-12-27T02:24:30.599Z,13.90
2022-12-27T02:27:14.048Z,12.90
2022-12-27T02:30:00.996Z,13.10
2022-12-27T02:32:36.691Z,15.57
2022-12-27T02:35:15.942Z,16.06
2022-12-27T02:37:50.873Z,14.69
2022-12-27T02:40:41.046Z,13.48
2022-12-27T02:43:27.794Z,12.57
2022-12-27T02:46:30.000Z,12.75
2022-12-27T02:49:17.853Z,15.22
2022-12-27T02:52:30.861Z,15.71
2022-12-27T02:55:20.967Z,13.97
2022-12-27T02:58:14.616Z,13.38
2022-12-27T03:01:20.787Z,14.98
2022-12-27T03:04:18.801Z,14.32
2022-12-27T03:06:57.311Z,12.90
2022-12-27T03:10:21.499Z,12.18
2022-12-27T03:13:18.330Z,14.13
2022-12-27T03:16:01.711Z,15.77
2022-12-27T03:18:45.057Z,14.34
2022-12-27T03:21:39.099Z,13.05
2022-12-27T03:24:26.830Z,14.25
2022-12-27T03:26:58.703Z,15.62
2022-12-27T03:29:46.345Z,14.34
2022-12-27T03:32:39.034Z,13.05
2022-12-27T03:35:19.215Z,13.82
2022-12-27T03:38:05.931Z,15.59
2022-12-27T03:41:06.434Z,14.83
2022-12-27T03:43:36.969Z,13.39
2022-12-27T03:46:33.826Z,14.36
2022-12-27T03:49:36.537Z,15.81
2022-12-27T03:52:42.472Z,14.30
2022-12-27T03:55:11.695Z,13.44
2022-12-27T03:57:40.962Z,15.29
2022-12-27T04:00:09.991Z,16.42
2022-12-27T04:02:44.730Z,15.15
2022-12-27T04:05:13.129Z,13.79
2022-12-27T04:07:59.683Z,12.77
2022-12-27T04:10:46.335Z,12.81
2022-12-27T04:13:32.977Z,15.16
2022-12-27T04:16:19.850Z,15.94
2022-12-27T04:19:06.553Z,14.33
2022-12-27T04:21:53.298Z,12.98
2022-12-27T04:24:40.109Z,12.95
2022-12-27T04:27:26.754Z,15.14
2022-12-27T04:30:13.430Z,15.75
2022-12-27T04:33:00.205Z,14.19
2022-12-27T04:35:28.230Z,12.79
2022-12-27T04:37:56.259Z,12.62
2022-12-27T04:40:43.009Z,14.78
2022-12-27T04:43:29.692Z,15.85
2022-12-27T04:46:16.478Z,14.32
2022-12-27T04:49:03.188Z,12.81
2022-12-27T04:51:50.016Z,12.72
2022-12-27T04:54:39.790Z,15.00
2022-12-27T04:57:07.808Z,15.13
2022-12-27T04:59:54.200Z,13.73
2022-12-27T05:02:22.262Z,12.50
2022-12-27T05:04:50.938Z,13.49
2022-12-27T05:07:37.521Z,15.41
2022-12-27T05:10:25.696Z,15.10
2022-12-27T05:13:12.556Z,13.48
2022-12-27T05:15:40.597Z,12.95
2022-12-27T05:18:08.630Z,14.74
2022-12-27T05:20:36.713Z,15.10
2022-12-27T05:23:23.432Z,13.86
2022-12-27T05:25:52.828Z,12.56
2022-12-27T05:28:20.935Z,12.67
2022-12-27T05:30:49.000Z,14.71
2022-12-27T05:33:17.883Z,15.53
2022-12-27T05:35:45.866Z,14.34
2022-12-27T05:38:13.892Z,12.96
2022-12-27T05:40:41.959Z,12.07
2022-12-27T05:43:09.959Z,12.96
2022-12-27T05:45:38.033Z,15.13
2022-12-27T05:48:06.280Z,15.46
2022-12-27T05:50:34.395Z,14.06
2022-12-27T05:53:12.304Z,12.73
2022-12-27T05:55:40.642Z,11.85
2022-12-27T05:58:08.668Z,12.41
2022-12-27T06:00:36.805Z,14.58
2022-12-27T06:03:04.933Z,14.73
2022-12-27T06:05:33.090Z,13.33
2022-12-27T06:08:02.052Z,12.13
2022-12-27T06:10:30.147Z,12.18
2022-12-27T06:13:02.459Z,14.31
2022-12-27T06:15:30.855Z,14.77
2022-12-27T06:18:00.531Z,13.50
2022-12-27T06:20:28.550Z,12.32
2022-12-27T06:22:59.248Z,11.50
2022-12-27T06:25:27.718Z,10.90
2022-12-27T06:27:55.703Z,10.47
2022-12-27T06:30:23.704Z,11.35
2022-12-27T06:32:51.725Z,13.87
2022-12-27T06:35:19.730Z,14.59
2022-12-27T06:37:47.721Z,12.90
2022-12-27T06:40:15.851Z,11.22
2022-12-27T06:42:43.826Z,11.26
2022-12-27T06:45:11.843Z,12.75
2022-12-27T06:47:39.828Z,12.15
2022-12-27T06:50:08.127Z,10.80
2022-12-27T06:52:36.402Z,10.08
2022-12-27T06:55:04.670Z,11.37
2022-12-27T06:57:32.688Z,11.66
2022-12-27T07:00:00.677Z,10.57
2022-12-27T07:02:29.401Z,9.54
2022-12-27T07:04:57.568Z,10.11
2022-12-27T07:07:25.693Z,11.72
2022-12-27T07:09:53.657Z,11.00
2022-12-27T07:12:21.720Z,9.91
2022-12-27T07:14:49.696Z,9.23
2022-12-27T07:17:17.704Z,10.58
2022-12-27T07:19:45.812Z,11.94
2022-12-27T07:22:13.935Z,10.85
2022-12-27T07:24:41.917Z,9.79
2022-12-27T07:27:10.419Z,9.04
2022-12-27T07:29:45.080Z,8.72
2022-12-27T07:32:13.848Z,10.89
2022-12-27T07:34:42.679Z,11.97
2022-12-27T07:37:10.722Z,11.03
2022-12-27T07:39:38.737Z,9.95
2022-12-27T07:42:08.651Z,9.12
2022-12-27T07:44:39.129Z,9.27
2022-12-27T07:47:07.103Z,11.56
2022-12-27T07:49:35.153Z,11.97
2022-12-27T07:52:03.258Z,10.72
2022-12-27T07:54:31.335Z,9.67
2022-12-27T07:56:59.399Z,8.80
2022-12-27T07:59:27.730Z,9.35
2022-12-27T08:02:04.624Z,11.78
2022-12-27T08:04:35.190Z,12.06
2022-12-27T08:07:14.155Z,10.67
2022-12-27T08:09:44.346Z,9.49
2022-12-27T08:12:16.342Z,8.72
2022-12-27T08:14:45.148Z,9.05
2022-12-27T08:17:30.963Z,11.38
2022-12-27T08:19:58.972Z,11.55
2022-12-27T08:22:27.079Z,10.28
2022-12-27T08:24:56.322Z,9.27
2022-12-27T08:27:25.460Z,8.49
2022-12-27T08:29:53.541Z,8.25
2022-12-27T08:32:21.670Z,10.40
2022-12-27T08:34:49.676Z,12.17
2022-12-27T08:37:17.643Z,11.14
2022-12-27T08:39:45.665Z,9.94
2022-12-27T08:42:14.127Z,9.08
2022-12-27T08:44:42.182Z,8.44
2022-12-27T08:47:10.160Z,7.99
2022-12-27T08:49:38.127Z,7.65
2022-12-27T08:52:06.129Z,8.44
2022-12-27T08:54:34.114Z,11.08
2022-12-27T08:57:02.719Z,11.38
2022-12-27T08:59:30.708Z,10.24
2022-12-27T09:01:59.203Z,9.26
2022-12-27T09:04:27.394Z,8.47
2022-12-27T09:06:55.441Z,8.99
2022-12-27T09:09:23.560Z,11.36
2022-12-27T09:11:51.521Z,11.57
2022-12-27T09:14:19.555Z,10.30
2022-12-27T09:16:47.599Z,9.29
2022-12-27T09:19:15.580Z,8.58
2022-12-27T09:21:44.213Z,8.26
2022-12-27T09:24:13.692Z,10.12
2022-12-27T09:26:41.845Z,11.89
2022-12-27T09:29:10.855Z,10.80
2022-12-27T09:31:38.892Z,9.81
2022-12-27T09:34:06.899Z,8.98
2022-12-27T09:36:38.591Z,8.33
2022-12-27T09:39:06.764Z,8.63
2022-12-27T09:42:44.395Z,10.65
2022-12-27T09:44:55.709Z,10.38
2022-12-27T09:47:52.810Z,9.30
2022-12-27T09:50:28.069Z,8.56
2022-12-27T09:52:56.529Z,8.16
2022-12-27T09:55:32.837Z,7.99
2022-12-27T09:58:18.144Z,10.04
2022-12-27T10:00:46.691Z,11.36
2022-12-27T10:03:14.911Z,10.33
2022-12-27T10:05:46.142Z,9.39
2022-12-27T10:08:23.342Z,8.73
2022-12-27T10:11:06.825Z,8.19
2022-12-27T10:13:57.945Z,7.81
2022-12-27T10:16:37.448Z,9.40
2022-12-27T10:19:34.446Z,10.90
2022-12-27T10:22:20.505Z,9.86
2022-12-27T10:24:53.493Z,8.82
2022-12-27T10:27:27.201Z,8.20
2022-12-27T10:29:57.854Z,7.80
2022-12-27T10:32:27.089Z,7.52
2022-12-27T10:35:00.165Z,7.50
2022-12-27T10:37:28.583Z,9.34
2022-12-27T10:40:11.186Z,9.97
2022-12-27T10:42:44.280Z,9.24
2022-12-27T10:45:32.518Z,8.57
2022-12-27T10:48:18.347Z,8.12
2022-12-27T10:50:50.363Z,7.85
2022-12-27T10:53:50.691Z,7.63
2022-12-27T10:56:21.538Z,7.41
2022-12-27T10:58:58.735Z,7.22
2022-12-27T11:01:30.205Z,7.01
2022-12-27T11:04:21.563Z,6.82
2022-12-27T11:07:02.219Z,7.78
2022-12-27T11:09:30.275Z,10.99
2022-12-27T11:12:32.288Z,11.66
2022-12-27T11:15:14.020Z,10.16
2022-12-27T11:17:48.929Z,9.12
2022-12-27T11:20:40.484Z,8.42
2022-12-27T11:23:08.444Z,7.87
2022-12-27T11:25:50.426Z,7.49
2022-12-27T11:28:38.594Z,7.16
2022-12-27T11:31:18.170Z,6.88
2022-12-27T11:33:49.359Z,6.66
2022-12-27T11:36:31.233Z,6.49
2022-12-27T11:39:00.747Z,7.13
2022-12-27T11:41:35.826Z,10.13
2022-12-27T11:44:29.736Z,11.07
2022-12-27T11:47:16.186Z,9.72
2022-12-27T11:50:07.297Z,8.62
2022-12-27T11:52:51.451Z,7.87
2022-12-27T11:55:28.361Z,7.41
2022-12-27T11:58:27.125Z,7.11
2022-12-27T12:01:20.694Z,6.85
2022-12-27T12:04:36.610Z,6.64
2022-12-27T12:07:25.143Z,7.70
2022-12-27T12:10:05.159Z,10.45
2022-12-27T12:12:58.195Z,9.92
2022-12-27T12:15:55.029Z,8.82
2022-12-27T12:18:49.562Z,7.98
2022-12-27T12:21:52.119Z,7.45
2022-12-27T12:24:38.710Z,7.08
2022-12-27T12:27:20.111Z,6.86
2022-12-27T12:30:27.619Z,6.80
2022-12-27T12:33:08.104Z,9.68
2022-12-27T12:35:49.232Z,11.45
2022-12-27T12:38:21.318Z,10.32
2022-12-27T12:41:21.697Z,9.08
2022-12-27T12:44:04.578Z,8.26
2022-12-27T12:46:43.063Z,7.71
2022-12-27T12:49:44.820Z,7.35
2022-12-27T12:52:32.099Z,7.02
2022-12-27T12:55:23.970Z,6.80
2022-12-27T12:58:17.020Z,6.63
2022-12-27T13:00:56.981Z,6.50
2022-12-27T13:03:58.618Z,6.40
2022-12-27T13:06:51.422Z,6.48
2022-12-27T13:09:28.681Z,9.36
2022-12-27T13:12:34.100Z,10.45
2022-12-27T13:15:24.091Z,9.24
2022-12-27T13:18:13.841Z,8.32
2022-12-27T13:20:44.757Z,7.67
2022-12-27T13:23:42.142Z,7.35
2022-12-27T13:26:20.623Z,7.06
2022-12-27T13:28:48.511Z,6.85
2022-12-27T13:31:48.081Z,6.67
2022-12-27T13:34:41.333Z,6.51
2022-12-27T13:37:20.290Z,6.38
2022-12-27T13:39:54.484Z,6.32
2022-12-27T13:42:51.252Z,7.62
2022-12-27T13:45:22.320Z,10.72
2022-12-27T13:48:02.317Z,10.24
2022-12-27T13:51:08.436Z,9.16
2022-12-27T13:54:31.543Z,8.27
2022-12-27T13:57:38.480Z,7.65
2022-12-27T14:00:17.678Z,7.25
2022-12-27T14:03:23.661Z,6.98
2022-12-27T14:05:58.063Z,6.71
2022-12-27T14:08:44.611Z,6.52
2022-12-27T14:11:31.147Z,6.37
2022-12-27T14:14:01.161Z,6.32
2022-12-27T14:16:29.202Z,8.40
2022-12-27T14:19:47.877Z,10.89
2022-12-27T14:22:48.458Z,9.77
2022-12-27T14:25:32.584Z,8.59
2022-12-27T14:28:37.709Z,7.92
2022-12-27T14:31:43.649Z,7.38
2022-12-27T14:34:23.877Z,7.01
2022-12-27T14:37:19.855Z,6.78
2022-12-27T14:39:53.828Z,6.57
2022-12-27T14:42:43.479Z,6.40
2022-12-27T14:45:39.593Z,6.24
2022-12-27T14:48:32.529Z,6.10
2022-12-27T14:51:00.515Z,7.37
2022-12-27T14:53:50.036Z,10.23
2022-12-27T14:56:34.096Z,10.28
2022-12-27T14:59:08.446Z,9.03
2022-12-27T15:02:18.503Z,8.18
2022-12-27T15:04:52.493Z,7.53
2022-12-27T15:07:32.394Z,7.14
2022-12-27T15:10:03.470Z,6.83
2022-12-27T15:12:51.525Z,6.60
2022-12-27T15:15:42.584Z,6.41
2022-12-27T15:18:16.540Z,6.23
2022-12-27T15:20:59.247Z,6.96
2022-12-27T15:23:33.371Z,10.22
2022-12-27T15:26:27.753Z,11.66
2022-12-27T15:29:12.644Z,10.26
2022-12-27T15:31:43.623Z,9.11
2022-12-27T15:34:26.678Z,8.36
2022-12-27T15:36:55.011Z,7.80
2022-12-27T15:39:35.732Z,7.38
2022-12-27T15:42:09.005Z,7.02
2022-12-27T15:44:58.514Z,6.77
2022-12-27T15:47:29.250Z,6.53
2022-12-27T15:50:15.405Z,6.57
2022-12-27T15:52:46.389Z,9.16
2022-12-27T15:56:01.581Z,10.51
2022-12-27T15:58:29.827Z,9.14
2022-12-27T16:01:28.840Z,8.22
2022-12-27T16:03:58.625Z,7.43
2022-12-27T16:06:35.874Z,7.02
2022-12-27T16:09:23.560Z,6.67
2022-12-27T16:12:13.436Z,6.41
2022-12-27T16:14:43.872Z,6.20
2022-12-27T16:17:38.443Z,6.28
2022-12-27T16:20:20.971Z,9.15
2022-12-27T16:23:03.045Z,10.95
2022-12-27T16:25:37.510Z,9.88
2022-12-27T16:28:29.651Z,8.64
2022-12-27T16:31:02.319Z,7.76
2022-12-27T16:33:37.813Z,7.27
2022-12-27T16:36:11.916Z,6.89
2022-12-27T16:38:45.851Z,6.56
2022-12-27T16:41:25.830Z,6.29
2022-12-27T16:44:00.163Z,6.06
2022-12-27T16:46:49.928Z,5.89
2022-12-27T16:49:30.147Z,5.99
2022-12-27T16:52:13.199Z,8.43
2022-12-27T16:55:00.194Z,8.97
2022-12-27T16:57:28.272Z,7.99
2022-12-27T16:59:58.053Z,7.31
2022-12-27T17:02:32.524Z,6.80
2022-12-27T17:05:01.109Z,6.44
2022-12-27T17:07:58.190Z,6.18
2022-12-27T17:10:32.613Z,5.95
2022-12-27T17:13:38.604Z,5.80
2022-12-27T17:16:23.560Z,5.66
2022-12-27T17:19:05.538Z,5.58
2022-12-27T17:21:41.969Z,7.29
2022-12-27T17:24:15.646Z,9.86
2022-12-27T17:26:58.111Z,9.26
2022-12-27T17:29:36.147Z,7.87
2022-12-27T17:32:25.960Z,7.15
2022-12-27T17:35:06.984Z,6.62
2022-12-27T17:37:53.266Z,6.26
2022-12-27T17:40:30.467Z,6.01
2022-12-27T17:43:49.996Z,5.84
2022-12-27T17:46:24.093Z,5.69
2022-12-27T17:48:56.138Z,5.58
2022-12-27T17:51:30.325Z,5.49
2022-12-27T17:54:17.278Z,6.03
2022-12-27T17:57:15.049Z,9.06
2022-12-27T17:59:45.718Z,9.35
2022-12-27T18:02:28.423Z,8.37
2022-12-27T18:04:58.776Z,7.37
2022-12-27T18:07:29.675Z,6.73
2022-12-27T18:10:24.370Z,6.38
2022-12-27T18:12:59.562Z,6.02
2022-12-27T18:15:43.439Z,5.78
2022-12-27T18:18:36.477Z,5.59
2022-12-27T18:21:05.966Z,5.41
2022-12-27T18:23:42.613Z,5.57
2022-12-27T18:26:13.867Z,7.82
2022-12-27T18:28:43.409Z,8.27
2022-12-27T18:31:17.170Z,7.42
2022-12-27T18:33:50.840Z,6.74
2022-12-27T18:36:34.778Z,6.25
2022-12-27T18:39:17.079Z,5.87
2022-12-27T18:41:51.049Z,5.63
2022-12-27T18:44:27.153Z,5.43
2022-12-27T18:46:59.530Z,5.26
2022-12-27T18:49:32.672Z,5.88
2022-12-27T18:52:02.557Z,8.08
2022-12-27T18:54:34.714Z,8.04
2022-12-27T18:57:06.124Z,7.25
2022-12-27T18:59:36.239Z,6.57
2022-12-27T19:02:36.681Z,6.09
2022-12-27T19:05:20.442Z,5.71
2022-12-27T19:07:50.874Z,5.44
2022-12-27T19:10:22.102Z,5.27
2022-12-27T19:12:52.409Z,5.56
2022-12-27T19:15:28.500Z,8.39
2022-12-27T19:18:02.387Z,10.35
2022-12-27T19:20:37.020Z,9.30
2022-12-27T19:23:24.906Z,8.12
2022-12-27T19:26:16.832Z,7.14
2022-12-27T19:28:46.608Z,6.51
2022-12-27T19:31:19.527Z,6.10
2022-12-27T19:33:54.766Z,5.76
2022-12-27T19:36:37.044Z,5.49
2022-12-27T19:39:18.431Z,5.25
2022-12-27T19:41:47.902Z,6.32
2022-12-27T19:44:16.391Z,8.46
2022-12-27T19:46:44.758Z,8.08
2022-12-27T19:49:41.510Z,7.02
2022-12-27T19:52:00.860Z,6.31
2022-12-27T19:54:30.792Z,5.85
2022-12-27T19:56:58.883Z,5.53
2022-12-27T19:59:27.292Z,5.27
2022-12-27T20:01:55.385Z,5.05
2022-12-27T20:04:23.704Z,5.61
2022-12-27T20:06:51.767Z,8.09
2022-12-27T20:09:20.690Z,8.06
2022-12-27T20:11:50.160Z,7.06
2022-12-27T20:14:18.132Z,6.26
2022-12-27T20:16:47.319Z,5.66
2022-12-27T20:19:18.239Z,5.32
2022-12-27T20:21:46.793Z,5.05
2022-12-27T20:24:15.089Z,4.97
2022-12-27T20:26:43.262Z,6.97
2022-12-27T20:29:12.844Z,8.30
2022-12-27T20:31:45.087Z,7.52
2022-12-27T20:34:13.483Z,6.65
2022-12-27T20:36:42.753Z,5.95
2022-12-27T20:39:12.844Z,5.51
2022-12-27T20:41:42.183Z,5.18
2022-12-27T20:44:14.605Z,4.93
2022-12-27T20:46:43.755Z,6.07
2022-12-27T20:49:13.141Z,8.53
2022-12-27T20:51:42.880Z,8.18
2022-12-27T20:54:14.101Z,7.23
2022-12-27T20:56:43.049Z,6.53
2022-12-27T20:59:12.424Z,6.07
2022-12-27T21:01:41.103Z,5.76
2022-12-27T21:04:11.192Z,5.54
2022-12-27T21:06:39.933Z,5.36
2022-12-27T21:09:11.972Z,5.22
2022-12-27T21:11:41.848Z,5.09
2022-12-27T21:14:12.515Z,4.96
2022-12-27T21:16:44.668Z,5.50
2022-12-27T21:19:14.057Z,8.60
2022-12-27T21:21:45.237Z,10.53
2022-12-27T21:24:16.306Z,9.57
2022-12-27T21:26:46.480Z,8.16
2022-12-27T21:29:19.080Z,7.20
2022-12-27T21:31:47.216Z,6.53
2022-12-27T21:34:16.492Z,6.05
2022-12-27T21:36:44.673Z,5.65
2022-12-27T21:39:12.689Z,5.33
2022-12-27T21:41:41.269Z,5.06
2022-12-27T21:44:10.028Z,4.99
2022-12-27T21:46:42.745Z,7.27
2022-12-27T21:49:13.525Z,9.79
2022-12-27T21:51:43.453Z,8.90
2022-12-27T21:54:13.849Z,7.68
2022-12-27T21:56:42.710Z,6.78
2022-12-27T21:59:13.849Z,6.16
2022-12-27T22:01:50.022Z,5.71
2022-12-27T22:04:21.359Z,5.34
2022-12-27T22:06:50.046Z,5.07
2022-12-27T22:09:19.546Z,4.95
2022-12-27T22:11:48.512Z,7.04
2022-12-27T22:14:21.840Z,9.41
2022-12-27T22:16:53.290Z,8.55
2022-12-27T22:19:21.427Z,7.27
2022-12-27T22:21:49.484Z,6.35
2022-12-27T22:24:20.002Z,5.76
2022-12-27T22:26:50.365Z,5.32
2022-12-27T22:29:18.657Z,5.03
2022-12-27T22:31:46.859Z,6.84
2022-12-27T22:34:14.971Z,8.90
2022-12-27T22:36:43.022Z,8.32
2022-12-27T22:39:11.213Z,7.09
2022-12-27T22:41:39.288Z,6.22
2022-12-27T22:44:11.028Z,5.64
2022-12-27T22:49:28.521Z,4.93
2022-12-27T22:51:56.549Z,6.56
2022-12-27T22:55:04.825Z,8.92
2022-12-27T22:57:12.490Z,8.11
2022-12-27T22:59:40.565Z,7.02
2022-12-27T23:02:08.623Z,6.21
2022-12-27T23:04:36.733Z,5.64
2022-12-27T23:07:05.326Z,5.24
2022-12-27T23:09:40.850Z,4.93
2022-12-27T23:12:11.928Z,5.91
2022-12-27T23:14:40.479Z,9.02
2022-12-27T23:17:08.526Z,9.63
2022-12-27T23:19:36.570Z,8.26
2022-12-27T23:22:05.359Z,7.20
2022-12-27T23:24:33.957Z,6.39
2022-12-27T23:27:03.452Z,5.79
2022-12-27T23:29:31.575Z,5.35
2022-12-27T23:31:59.723Z,4.99
2022-12-27T23:34:29.109Z,4.75
2022-12-27T23:36:59.053Z,6.29
2022-12-27T23:39:27.576Z,9.44
2022-12-27T23:41:55.691Z,9.95
2022-12-27T23:44:34.016Z,8.53
2022-12-27T23:47:06.712Z,7.20
2022-12-27T23:49:34.955Z,6.41
2022-12-27T23:52:03.113Z,5.85
2022-12-27T23:54:31.204Z,5.44
2022-12-27T23:57:20.194Z,5.10
2022-12-27T23:59:47.433Z,5.28
